sensor_id;sensor_type;location;lat;lon;timestamp;pressure;altitude;pressure_sealevel;temperature;humidity
50368;BME280;36281;34.132;-118.018;2023-03-12T00:01:23;100375.44;;;18.80;88.17
50368;BME280;36281;34.132;-118.018;2023-03-12T00:03:59;100374.84;;;18.78;87.89
50368;BME280;36281;34.132;-118.018;2023-03-12T00:06:29;100368.13;;;18.76;88.20
50368;BME280;36281;34.132;-118.018;2023-03-12T00:08:58;100372.16;;;18.78;88.32
50368;BME280;36281;34.132;-118.018;2023-03-12T00:11:29;100382.34;;;18.76;88.29
50368;BME280;36281;34.132;-118.018;2023-03-12T00:13:58;100378.81;;;18.71;88.04
50368;BME280;36281;34.132;-118.018;2023-03-12T00:16:27;100334.72;;;18.40;88.13
50368;BME280;36281;34.132;-118.018;2023-03-12T00:18:58;100370.38;;;18.62;88.23
50368;BME280;36281;34.132;-118.018;2023-03-12T00:21:27;100382.41;;;18.59;88.11
50368;BME280;36281;34.132;-118.018;2023-03-12T00:23:56;100375.94;;;18.55;88.21
50368;BME280;36281;34.132;-118.018;2023-03-12T00:26:25;100381.31;;;18.55;88.73
50368;BME280;36281;34.132;-118.018;2023-03-12T00:28:54;100377.25;;;18.53;88.78
50368;BME280;36281;34.132;-118.018;2023-03-12T00:31:25;100376.94;;;18.49;89.16
50368;BME280;36281;34.132;-118.018;2023-03-12T00:33:55;100379.06;;;18.47;89.23
50368;BME280;36281;34.132;-118.018;2023-03-12T00:36:28;100374.50;;;18.48;89.17
50368;BME280;36281;34.132;-118.018;2023-03-12T00:38:58;100370.75;;;18.49;89.05
50368;BME280;36281;34.132;-118.018;2023-03-12T00:41:28;100369.94;;;18.48;89.27
50368;BME280;36281;34.132;-118.018;2023-03-12T00:43:58;100373.69;;;18.47;89.12
50368;BME280;36281;34.132;-118.018;2023-03-12T00:46:27;100371.50;;;18.44;89.26
50368;BME280;36281;34.132;-118.018;2023-03-12T00:48:56;100372.03;;;18.41;89.31
50368;BME280;36281;34.132;-118.018;2023-03-12T00:51:27;100373.59;;;18.37;89.19
50368;BME280;36281;34.132;-118.018;2023-03-12T00:53:56;100375.13;;;18.33;89.55
50368;BME280;36281;34.132;-118.018;2023-03-12T00:56:25;100378.34;;;18.30;89.74
50368;BME280;36281;34.132;-118.018;2023-03-12T00:58:54;100379.63;;;18.27;89.80
50368;BME280;36281;34.132;-118.018;2023-03-12T01:01:23;100368.25;;;18.15;90.07
50368;BME280;36281;34.132;-118.018;2023-03-12T01:03:52;100385.75;;;18.23;89.86
50368;BME280;36281;34.132;-118.018;2023-03-12T01:06:21;100388.91;;;18.20;90.04
50368;BME280;36281;34.132;-118.018;2023-03-12T01:08:52;100392.91;;;18.17;90.32
50368;BME280;36281;34.132;-118.018;2023-03-12T01:11:22;100398.22;;;18.12;90.39
50368;BME280;36281;34.132;-118.018;2023-03-12T01:13:51;100396.00;;;18.09;90.98
50368;BME280;36281;34.132;-118.018;2023-03-12T01:16:20;100401.09;;;18.05;91.34
50368;BME280;36281;34.132;-118.018;2023-03-12T01:18:49;100398.34;;;18.00;91.74
50368;BME280;36281;34.132;-118.018;2023-03-12T01:21:18;100400.44;;;17.98;92.21
50368;BME280;36281;34.132;-118.018;2023-03-12T01:23:48;100400.94;;;17.95;92.90
50368;BME280;36281;34.132;-118.018;2023-03-12T01:26:18;100402.50;;;17.91;92.76
50368;BME280;36281;34.132;-118.018;2023-03-12T01:28:48;100404.03;;;17.87;92.89
50368;BME280;36281;34.132;-118.018;2023-03-12T01:31:18;100401.84;;;17.84;93.37
50368;BME280;36281;34.132;-118.018;2023-03-12T01:33:48;100413.06;;;17.81;93.82
50368;BME280;36281;34.132;-118.018;2023-03-12T01:36:19;100400.16;;;17.78;94.22
50368;BME280;36281;34.132;-118.018;2023-03-12T01:38:50;100407.84;;;17.74;93.98
50368;BME280;36281;34.132;-118.018;2023-03-12T01:41:22;100405.88;;;17.70;94.25
50368;BME280;36281;34.132;-118.018;2023-03-12T01:43:51;100404.19;;;17.64;94.27
50368;BME280;36281;34.132;-118.018;2023-03-12T01:46:23;100402.50;;;17.57;94.63
50368;BME280;36281;34.132;-118.018;2023-03-12T01:48:56;100405.91;;;17.53;95.05
50368;BME280;36281;34.132;-118.018;2023-03-12T01:51:27;100413.94;;;17.53;95.41
50368;BME280;36281;34.132;-118.018;2023-03-12T01:54:01;100410.13;;;17.49;95.72
50368;BME280;36281;34.132;-118.018;2023-03-12T01:56:35;100419.69;;;17.45;95.98
50368;BME280;36281;34.132;-118.018;2023-03-12T01:59:08;100422.63;;;17.43;95.99
50368;BME280;36281;34.132;-118.018;2023-03-12T02:01:39;100421.47;;;17.39;96.22
50368;BME280;36281;34.132;-118.018;2023-03-12T02:04:10;100427.09;;;17.38;96.42
50368;BME280;36281;34.132;-118.018;2023-03-12T02:06:44;100420.84;;;17.32;96.38
50368;BME280;36281;34.132;-118.018;2023-03-12T02:09:16;100426.19;;;17.32;96.40
50368;BME280;36281;34.132;-118.018;2023-03-12T02:11:49;100418.31;;;17.25;96.60
50368;BME280;36281;34.132;-118.018;2023-03-12T02:14:18;100422.53;;;17.21;96.92
50368;BME280;36281;34.132;-118.018;2023-03-12T02:16:47;100422.13;;;17.13;97.30
50368;BME280;36281;34.132;-118.018;2023-03-12T02:19:22;100433.63;;;17.13;97.36
50368;BME280;36281;34.132;-118.018;2023-03-12T02:21:53;100429.81;;;17.09;97.81
50368;BME280;36281;34.132;-118.018;2023-03-12T02:24:29;100432.97;;;17.06;98.23
50368;BME280;36281;34.132;-118.018;2023-03-12T02:27:04;100432.63;;;17.02;98.42
50368;BME280;36281;34.132;-118.018;2023-03-12T02:29:37;100431.25;;;17.00;98.60
50368;BME280;36281;34.132;-118.018;2023-03-12T02:32:09;100434.16;;;16.98;98.84
50368;BME280;36281;34.132;-118.018;2023-03-12T02:34:41;100430.13;;;16.96;99.20
50368;BME280;36281;34.132;-118.018;2023-03-12T02:37:10;100437.56;;;16.94;99.42
50368;BME280;36281;34.132;-118.018;2023-03-12T02:39:40;100434.31;;;16.92;99.54
50368;BME280;36281;34.132;-118.018;2023-03-12T02:42:12;100442.00;;;16.88;99.42
50368;BME280;36281;34.132;-118.018;2023-03-12T02:44:42;100437.13;;;16.85;99.47
50368;BME280;36281;34.132;-118.018;2023-03-12T02:47:12;100446.19;;;16.84;99.71
50368;BME280;36281;34.132;-118.018;2023-03-12T02:49:40;100448.31;;;16.82;99.74
50368;BME280;36281;34.132;-118.018;2023-03-12T02:52:10;100448.78;;;16.79;99.91
50368;BME280;36281;34.132;-118.018;2023-03-12T02:54:39;100451.09;;;16.75;100.00
50368;BME280;36281;34.132;-118.018;2023-03-12T02:57:07;100474.38;;;16.75;100.00
50368;BME280;36281;34.132;-118.018;2023-03-12T02:59:38;100475.19;;;16.75;100.00
50368;BME280;36281;34.132;-118.018;2023-03-12T03:02:07;100482.66;;;16.73;100.00
50368;BME280;36281;34.132;-118.018;2023-03-12T03:04:37;100469.53;;;16.72;100.00
50368;BME280;36281;34.132;-118.018;2023-03-12T03:07:06;100473.22;;;16.71;100.00
50368;BME280;36281;34.132;-118.018;2023-03-12T03:09:35;100483.06;;;16.70;100.00
50368;BME280;36281;34.132;-118.018;2023-03-12T03:12:04;100477.97;;;16.69;100.00
50368;BME280;36281;34.132;-118.018;2023-03-12T03:14:33;100474.72;;;16.67;100.00
50368;BME280;36281;34.132;-118.018;2023-03-12T03:17:04;100479.75;;;16.63;100.00
50368;BME280;36281;34.132;-118.018;2023-03-12T03:19:33;100488.31;;;16.65;100.00
50368;BME280;36281;34.132;-118.018;2023-03-12T03:22:02;100495.53;;;16.65;100.00
50368;BME280;36281;34.132;-118.018;2023-03-12T03:24:31;100488.56;;;16.64;100.00
50368;BME280;36281;34.132;-118.018;2023-03-12T03:27:00;100493.09;;;16.63;100.00
50368;BME280;36281;34.132;-118.018;2023-03-12T03:29:29;100495.78;;;16.63;100.00
50368;BME280;36281;34.132;-118.018;2023-03-12T03:31:58;100494.16;;;16.62;100.00
50368;BME280;36281;34.132;-118.018;2023-03-12T03:34:29;100495.22;;;16.61;100.00
50368;BME280;36281;34.132;-118.018;2023-03-12T03:36:58;100498.47;;;16.63;100.00
50368;BME280;36281;34.132;-118.018;2023-03-12T03:39:28;100496.03;;;16.62;100.00
50368;BME280;36281;34.132;-118.018;2023-03-12T03:41:57;100498.91;;;16.60;100.00
50368;BME280;36281;34.132;-118.018;2023-03-12T03:44:26;100396.06;;;15.87;100.00
50368;BME280;36281;34.132;-118.018;2023-03-12T03:46:57;100508.00;;;16.59;100.00
50368;BME280;36281;34.132;-118.018;2023-03-12T03:49:29;100522.41;;;16.58;100.00
50368;BME280;36281;34.132;-118.018;2023-03-12T03:51:59;100461.22;;;16.21;100.00
50368;BME280;36281;34.132;-118.018;2023-03-12T03:54:29;100518.94;;;16.58;100.00
50368;BME280;36281;34.132;-118.018;2023-03-12T03:56:59;100464.81;;;16.15;100.00
50368;BME280;36281;34.132;-118.018;2023-03-12T03:59:29;100522.88;;;16.55;100.00
50368;BME280;36281;34.132;-118.018;2023-03-12T04:02:00;100520.44;;;16.53;100.00
50368;BME280;36281;34.132;-118.018;2023-03-12T04:04:34;100496.31;;;16.37;100.00
50368;BME280;36281;34.132;-118.018;2023-03-12T04:07:06;100524.16;;;16.52;100.00
50368;BME280;36281;34.132;-118.018;2023-03-12T04:09:37;100534.06;;;16.52;100.00
50368;BME280;36281;34.132;-118.018;2023-03-12T04:12:07;100540.47;;;16.51;100.00
50368;BME280;36281;34.132;-118.018;2023-03-12T04:14:41;100529.16;;;16.49;100.00
50368;BME280;36281;34.132;-118.018;2023-03-12T04:17:12;100462.59;;;16.00;100.00
50368;BME280;36281;34.132;-118.018;2023-03-12T04:19:49;100531.03;;;16.48;100.00
50368;BME280;36281;34.132;-118.018;2023-03-12T04:22:20;100533.72;;;16.48;100.00
50368;BME280;36281;34.132;-118.018;2023-03-12T04:24:51;100502.56;;;16.19;100.00
50368;BME280;36281;34.132;-118.018;2023-03-12T04:27:23;100538.47;;;16.46;100.00
50368;BME280;36281;34.132;-118.018;2023-03-12T04:29:56;100545.66;;;16.46;100.00
50368;BME280;36281;34.132;-118.018;2023-03-12T04:32:26;100548.59;;;16.44;100.00
50368;BME280;36281;34.132;-118.018;2023-03-12T04:35:00;100546.97;;;16.43;100.00
50368;BME280;36281;34.132;-118.018;2023-03-12T04:37:32;100483.53;;;16.03;100.00
50368;BME280;36281;34.132;-118.018;2023-03-12T04:40:05;100488.50;;;16.00;100.00
50368;BME280;36281;34.132;-118.018;2023-03-12T04:42:36;100537.09;;;16.32;100.00
50368;BME280;36281;34.132;-118.018;2023-03-12T04:45:10;100550.34;;;16.39;100.00
50368;BME280;36281;34.132;-118.018;2023-03-12T04:47:40;100514.19;;;16.13;100.00
50368;BME280;36281;34.132;-118.018;2023-03-12T04:50:29;100554.88;;;16.38;100.00
50368;BME280;36281;34.132;-118.018;2023-03-12T04:53:00;100487.59;;;15.94;100.00
50368;BME280;36281;34.132;-118.018;2023-03-12T04:55:34;100562.31;;;16.36;100.00
50368;BME280;36281;34.132;-118.018;2023-03-12T04:58:05;100566.81;;;16.36;100.00
50368;BME280;36281;34.132;-118.018;2023-03-12T05:00:35;100561.97;;;16.33;100.00
50368;BME280;36281;34.132;-118.018;2023-03-12T05:03:08;100521.97;;;16.02;100.00
50368;BME280;36281;34.132;-118.018;2023-03-12T05:05:47;100540.09;;;16.00;100.00
50368;BME280;36281;34.132;-118.018;2023-03-12T05:08:20;100590.75;;;16.31;100.00
50368;BME280;36281;34.132;-118.018;2023-03-12T05:10:49;100527.66;;;15.94;100.00
50368;BME280;36281;34.132;-118.018;2023-03-12T05:13:22;100391.56;;;15.11;100.00
50368;BME280;36281;34.132;-118.018;2023-03-12T05:15:52;100582.53;;;16.32;100.00
50368;BME280;36281;34.132;-118.018;2023-03-12T05:18:24;100515.47;;;15.87;100.00
50368;BME280;36281;34.132;-118.018;2023-03-12T05:21:04;100581.38;;;16.28;100.00
50368;BME280;36281;34.132;-118.018;2023-03-12T05:23:44;100575.22;;;16.27;100.00
50368;BME280;36281;34.132;-118.018;2023-03-12T05:26:19;100551.50;;;16.08;100.00
50368;BME280;36281;34.132;-118.018;2023-03-12T05:28:49;100512.44;;;15.83;100.00
50368;BME280;36281;34.132;-118.018;2023-03-12T05:31:19;100546.03;;;16.02;100.00
50368;BME280;36281;34.132;-118.018;2023-03-12T05:33:50;100572.06;;;16.19;100.00
50368;BME280;36281;34.132;-118.018;2023-03-12T05:36:26;100544.41;;;16.01;100.00
50368;BME280;36281;34.132;-118.018;2023-03-12T05:38:56;100507.78;;;15.79;100.00
50368;BME280;36281;34.132;-118.018;2023-03-12T05:41:29;100572.41;;;16.22;100.00
50368;BME280;36281;34.132;-118.018;2023-03-12T05:43:59;100519.97;;;15.86;100.00
50368;BME280;36281;34.132;-118.018;2023-03-12T05:46:30;100582.50;;;16.20;100.00
50368;BME280;36281;34.132;-118.018;2023-03-12T05:49:00;100584.59;;;16.18;100.00
50368;BME280;36281;34.132;-118.018;2023-03-12T05:51:33;100562.50;;;15.99;100.00
50368;BME280;36281;34.132;-118.018;2023-03-12T05:54:03;100578.69;;;16.16;100.00
50368;BME280;36281;34.132;-118.018;2023-03-12T05:56:35;100578.91;;;16.15;100.00
50368;BME280;36281;34.132;-118.018;2023-03-12T05:59:06;100571.94;;;16.14;100.00
50368;BME280;36281;34.132;-118.018;2023-03-12T06:01:35;100529.50;;;15.82;100.00
50368;BME280;36281;34.132;-118.018;2023-03-12T06:04:06;100570.19;;;16.08;100.00
50368;BME280;36281;34.132;-118.018;2023-03-12T06:06:38;100546.59;;;15.93;100.00
50368;BME280;36281;34.132;-118.018;2023-03-12T06:09:09;100559.03;;;15.99;100.00
50368;BME280;36281;34.132;-118.018;2023-03-12T06:11:39;100514.78;;;15.61;100.00
50368;BME280;36281;34.132;-118.018;2023-03-12T06:14:11;100529.56;;;15.64;100.00
50368;BME280;36281;34.132;-118.018;2023-03-12T06:16:41;100565.97;;;15.88;100.00
50368;BME280;36281;34.132;-118.018;2023-03-12T06:19:12;100576.22;;;15.91;100.00
50368;BME280;36281;34.132;-118.018;2023-03-12T06:21:48;100529.06;;;15.55;100.00
50368;BME280;36281;34.132;-118.018;2023-03-12T06:24:18;100537.44;;;15.59;100.00
50368;BME280;36281;34.132;-118.018;2023-03-12T06:26:49;100537.31;;;15.54;100.00
50368;BME280;36281;34.132;-118.018;2023-03-12T06:29:19;100574.41;;;15.73;100.00
50368;BME280;36281;34.132;-118.018;2023-03-12T06:31:49;100556.94;;;15.59;100.00
50368;BME280;36281;34.132;-118.018;2023-03-12T06:34:20;100592.31;;;15.85;100.00
50368;BME280;36281;34.132;-118.018;2023-03-12T06:36:53;100598.94;;;15.82;100.00
50368;BME280;36281;34.132;-118.018;2023-03-12T06:39:24;100603.47;;;15.82;100.00
50368;BME280;36281;34.132;-118.018;2023-03-12T06:41:56;100585.34;;;15.72;100.00
50368;BME280;36281;34.132;-118.018;2023-03-12T06:44:26;100552.59;;;15.46;100.00
50368;BME280;36281;34.132;-118.018;2023-03-12T06:46:56;100600.22;;;15.80;100.00
50368;BME280;36281;34.132;-118.018;2023-03-12T06:49:28;100581.00;;;15.71;100.00
50368;BME280;36281;34.132;-118.018;2023-03-12T06:52:05;100485.41;;;15.08;100.00
50368;BME280;36281;34.132;-118.018;2023-03-12T06:54:34;100566.34;;;15.62;100.00
50368;BME280;36281;34.132;-118.018;2023-03-12T06:57:05;100594.50;;;15.76;100.00
50368;BME280;36281;34.132;-118.018;2023-03-12T06:59:35;100594.50;;;15.76;100.00
50368;BME280;36281;34.132;-118.018;2023-03-12T07:02:05;100595.53;;;15.75;100.00
50368;BME280;36281;34.132;-118.018;2023-03-12T07:04:34;100590.22;;;15.75;100.00
50368;BME280;36281;34.132;-118.018;2023-03-12T07:07:08;100576.97;;;15.68;100.00
50368;BME280;36281;34.132;-118.018;2023-03-12T07:09:39;100530.63;;;15.33;100.00
50368;BME280;36281;34.132;-118.018;2023-03-12T07:12:12;100527.34;;;15.31;100.00
50368;BME280;36281;34.132;-118.018;2023-03-12T07:14:43;100595.41;;;15.70;100.00
50368;BME280;36281;34.132;-118.018;2023-03-12T07:17:15;100585.50;;;15.59;100.00
50368;BME280;36281;34.132;-118.018;2023-03-12T07:19:45;100599.13;;;15.69;100.00
50368;BME280;36281;34.132;-118.018;2023-03-12T07:22:20;100547.56;;;15.38;100.00
50368;BME280;36281;34.132;-118.018;2023-03-12T07:24:50;100588.91;;;15.66;100.00
50368;BME280;36281;34.132;-118.018;2023-03-12T07:27:20;100507.19;;;15.05;100.00
50368;BME280;36281;34.132;-118.018;2023-03-12T07:29:49;100532.25;;;15.34;100.00
50368;BME280;36281;34.132;-118.018;2023-03-12T07:32:21;100494.91;;;15.15;100.00
50368;BME280;36281;34.132;-118.018;2023-03-12T07:34:51;100584.41;;;15.66;100.00
50368;BME280;36281;34.132;-118.018;2023-03-12T07:37:24;100580.88;;;15.66;100.00
50368;BME280;36281;34.132;-118.018;2023-03-12T07:39:56;100573.91;;;15.65;100.00
50368;BME280;36281;34.132;-118.018;2023-03-12T07:42:27;100517.59;;;15.24;100.00
50368;BME280;36281;34.132;-118.018;2023-03-12T07:44:57;100561.91;;;15.56;100.00
50368;BME280;36281;34.132;-118.018;2023-03-12T07:47:28;100581.13;;;15.64;100.00
50368;BME280;36281;34.132;-118.018;2023-03-12T07:49:57;100567.97;;;15.63;100.00
50368;BME280;36281;34.132;-118.018;2023-03-12T07:52:32;100555.69;;;15.62;100.00
50368;BME280;36281;34.132;-118.018;2023-03-12T07:55:03;100554.03;;;15.61;100.00
50368;BME280;36281;34.132;-118.018;2023-03-12T07:57:34;100548.91;;;15.59;100.00
50368;BME280;36281;34.132;-118.018;2023-03-12T08:00:07;100549.97;;;15.58;100.00
50368;BME280;36281;34.132;-118.018;2023-03-12T08:02:40;100500.53;;;15.25;100.00
50368;BME280;36281;34.132;-118.018;2023-03-12T08:05:11;100517.03;;;15.34;100.00
50368;BME280;36281;34.132;-118.018;2023-03-12T08:07:43;100553.91;;;15.56;100.00
50368;BME280;36281;34.132;-118.018;2023-03-12T08:10:14;100552.28;;;15.55;100.00
50368;BME280;36281;34.132;-118.018;2023-03-12T08:12:45;100559.91;;;15.51;100.00
50368;BME280;36281;34.132;-118.018;2023-03-12T08:15:15;100468.16;;;14.92;100.00
50368;BME280;36281;34.132;-118.018;2023-03-12T08:17:45;100508.63;;;15.19;100.00
50368;BME280;36281;34.132;-118.018;2023-03-12T08:20:16;100559.09;;;15.50;100.00
50368;BME280;36281;34.132;-118.018;2023-03-12T08:22:49;100552.94;;;15.50;100.00
50368;BME280;36281;34.132;-118.018;2023-03-12T08:25:20;100552.13;;;15.49;100.00
50368;BME280;36281;34.132;-118.018;2023-03-12T08:27:52;100556.44;;;15.50;100.00
50368;BME280;36281;34.132;-118.018;2023-03-12T08:30:22;100550.50;;;15.48;100.00
50368;BME280;36281;34.132;-118.018;2023-03-12T08:32:54;100545.41;;;15.47;100.00
50368;BME280;36281;34.132;-118.018;2023-03-12T08:35:24;100546.66;;;15.44;100.00
50368;BME280;36281;34.132;-118.018;2023-03-12T08:37:56;100524.81;;;15.36;100.00
50368;BME280;36281;34.132;-118.018;2023-03-12T08:40:29;100482.50;;;15.09;100.00
50368;BME280;36281;34.132;-118.018;2023-03-12T08:43:03;100484.78;;;15.06;100.00
50368;BME280;36281;34.132;-118.018;2023-03-12T08:45:36;100509.31;;;15.14;100.00
50368;BME280;36281;34.132;-118.018;2023-03-12T08:48:07;100504.66;;;15.10;100.00
50368;BME280;36281;34.132;-118.018;2023-03-12T08:50:37;100500.22;;;15.04;100.00
50368;BME280;36281;34.132;-118.018;2023-03-12T08:53:14;100494.50;;;15.00;100.00
50368;BME280;36281;34.132;-118.018;2023-03-12T08:55:44;100531.16;;;15.23;100.00
50368;BME280;36281;34.132;-118.018;2023-03-12T08:58:14;100558.25;;;15.38;100.00
50368;BME280;36281;34.132;-118.018;2023-03-12T09:00:46;100505.56;;;15.04;100.00
50368;BME280;36281;34.132;-118.018;2023-03-12T09:03:16;100536.34;;;15.18;100.00
50368;BME280;36281;34.132;-118.018;2023-03-12T09:05:49;100563.31;;;15.28;100.00
50368;BME280;36281;34.132;-118.018;2023-03-12T09:08:23;100554.94;;;15.24;100.00
50368;BME280;36281;34.132;-118.018;2023-03-12T09:10:53;100540.81;;;15.06;100.00
50368;BME280;36281;34.132;-118.018;2023-03-12T09:13:23;100536.16;;;15.01;100.00
50368;BME280;36281;34.132;-118.018;2023-03-12T09:16:14;100552.38;;;15.18;100.00
50368;BME280;36281;34.132;-118.018;2023-03-12T09:18:44;100485.44;;;14.71;100.00
50368;BME280;36281;34.132;-118.018;2023-03-12T09:21:17;100544.66;;;15.10;100.00
50368;BME280;36281;34.132;-118.018;2023-03-12T09:23:53;100497.56;;;14.85;100.00
50368;BME280;36281;34.132;-118.018;2023-03-12T09:26:24;100520.22;;;14.94;100.00
50368;BME280;36281;34.132;-118.018;2023-03-12T09:28:54;100550.38;;;15.13;100.00
50368;BME280;36281;34.132;-118.018;2023-03-12T09:31:26;100544.09;;;15.08;100.00
50368;BME280;36281;34.132;-118.018;2023-03-12T09:33:56;100558.81;;;15.10;100.00
50368;BME280;36281;34.132;-118.018;2023-03-12T09:36:26;100465.22;;;14.45;100.00
50368;BME280;36281;34.132;-118.018;2023-03-12T09:38:59;100512.91;;;14.71;100.00
50368;BME280;36281;34.132;-118.018;2023-03-12T09:41:32;100562.81;;;15.01;100.00
50368;BME280;36281;34.132;-118.018;2023-03-12T09:44:08;100476.69;;;14.45;100.00
50368;BME280;36281;34.132;-118.018;2023-03-12T09:46:43;100508.84;;;14.69;100.00
50368;BME280;36281;34.132;-118.018;2023-03-12T09:49:28;100527.91;;;14.72;100.00
50368;BME280;36281;34.132;-118.018;2023-03-12T09:52:05;100547.81;;;14.88;100.00
50368;BME280;36281;34.132;-118.018;2023-03-12T09:54:43;100533.38;;;14.78;100.00
50368;BME280;36281;34.132;-118.018;2023-03-12T09:57:22;100549.66;;;14.88;100.00
50368;BME280;36281;34.132;-118.018;2023-03-12T09:59:57;100501.88;;;14.50;100.00
50368;BME280;36281;34.132;-118.018;2023-03-12T10:02:50;100463.13;;;14.29;100.00
50368;BME280;36281;34.132;-118.018;2023-03-12T10:05:30;100551.72;;;14.86;100.00
50368;BME280;36281;34.132;-118.018;2023-03-12T10:08:06;100540.25;;;14.85;100.00
50368;BME280;36281;34.132;-118.018;2023-03-12T10:10:57;100547.19;;;14.86;100.00
50368;BME280;36281;34.132;-118.018;2023-03-12T10:13:55;100528.63;;;14.80;100.00
50368;BME280;36281;34.132;-118.018;2023-03-12T10:16:38;100538.84;;;14.83;100.00
50368;BME280;36281;34.132;-118.018;2023-03-12T10:19:37;100447.97;;;14.29;100.00
50368;BME280;36281;34.132;-118.018;2023-03-12T10:22:17;100511.66;;;14.74;100.00
50368;BME280;36281;34.132;-118.018;2023-03-12T10:25:00;100442.41;;;14.31;100.00
50368;BME280;36281;34.132;-118.018;2023-03-12T10:27:40;100521.13;;;14.88;100.00
50368;BME280;36281;34.132;-118.018;2023-03-12T10:30:16;100416.22;;;14.28;100.00
50368;BME280;36281;34.132;-118.018;2023-03-12T10:32:50;100450.00;;;14.52;100.00
50368;BME280;36281;34.132;-118.018;2023-03-12T10:35:23;100506.53;;;14.91;100.00
50368;BME280;36281;34.132;-118.018;2023-03-12T10:37:57;100500.38;;;14.90;100.00
50368;BME280;36281;34.132;-118.018;2023-03-12T10:40:30;100503.84;;;14.91;100.00
50368;BME280;36281;34.132;-118.018;2023-03-12T10:43:09;100414.88;;;14.37;100.00
50368;BME280;36281;34.132;-118.018;2023-03-12T11:47:59;100448.81;;;14.48;100.00
50368;BME280;36281;34.132;-118.018;2023-03-12T11:53:35;100490.09;;;14.76;100.00
50368;BME280;36281;34.132;-118.018;2023-03-12T11:56:23;100443.16;;;14.38;100.00
50368;BME280;36281;34.132;-118.018;2023-03-12T11:59:13;100426.88;;;14.28;100.00
50368;BME280;36281;34.132;-118.018;2023-03-12T12:01:57;100493.81;;;14.74;100.00
50368;BME280;36281;34.132;-118.018;2023-03-12T12:08:06;100504.25;;;14.76;100.00
50368;BME280;36281;34.132;-118.018;2023-03-12T12:10:48;100500.28;;;14.67;100.00
50368;BME280;36281;34.132;-118.018;2023-03-12T12:13:32;100482.94;;;14.58;100.00
50368;BME280;36281;34.132;-118.018;2023-03-12T12:16:22;100507.94;;;14.75;100.00
50368;BME280;36281;34.132;-118.018;2023-03-12T12:19:08;100517.81;;;14.74;100.00
50368;BME280;36281;34.132;-118.018;2023-03-12T14:11:55;100557.28;;;14.22;100.00
50368;BME280;36281;34.132;-118.018;2023-03-12T14:14:49;100554.06;;;14.14;100.00
50368;BME280;36281;34.132;-118.018;2023-03-12T14:20:10;100561.94;;;14.27;100.00
50368;BME280;36281;34.132;-118.018;2023-03-12T14:22:44;100550.09;;;14.23;100.00
50368;BME280;36281;34.132;-118.018;2023-03-12T14:30:49;100551.06;;;14.29;100.00
50368;BME280;36281;34.132;-118.018;2023-03-12T14:33:21;100552.47;;;14.31;100.00
50368;BME280;36281;34.132;-118.018;2023-03-12T14:35:56;100560.44;;;14.31;100.00
50368;BME280;36281;34.132;-118.018;2023-03-12T14:44:21;100543.00;;;14.35;100.00
50368;BME280;36281;34.132;-118.018;2023-03-12T14:47:01;100549.13;;;14.36;100.00
50368;BME280;36281;34.132;-118.018;2023-03-12T14:49:31;100555.91;;;14.38;100.00
50368;BME280;36281;34.132;-118.018;2023-03-12T14:52:00;100554.28;;;14.37;100.00
50368;BME280;36281;34.132;-118.018;2023-03-12T14:54:29;100554.44;;;14.42;100.00
50368;BME280;36281;34.132;-118.018;2023-03-12T14:56:58;100550.72;;;14.43;100.00
50368;BME280;36281;34.132;-118.018;2023-03-12T14:59:28;100560.75;;;14.48;100.00
50368;BME280;36281;34.132;-118.018;2023-03-12T15:02:06;100554.97;;;14.51;100.00
50368;BME280;36281;34.132;-118.018;2023-03-12T15:16:51;100586.75;;;14.71;100.00
50368;BME280;36281;34.132;-118.018;2023-03-12T15:19:26;100586.31;;;14.74;100.00
50368;BME280;36281;34.132;-118.018;2023-03-12T15:21:58;100583.41;;;14.76;100.00
50368;BME280;36281;34.132;-118.018;2023-03-12T15:24:30;100594.47;;;14.79;98.44
50368;BME280;36281;34.132;-118.018;2023-03-12T15:27:20;100598.91;;;14.85;96.97
50368;BME280;36281;34.132;-118.018;2023-03-12T15:29:49;100603.34;;;14.91;95.44
50368;BME280;36281;34.132;-118.018;2023-03-12T15:32:20;100592.63;;;14.98;95.00
50368;BME280;36281;34.132;-118.018;2023-03-12T15:34:54;100593.81;;;15.02;94.37
50368;BME280;36281;34.132;-118.018;2023-03-12T15:37:28;100589.22;;;15.09;94.81
50368;BME280;36281;34.132;-118.018;2023-03-12T15:40:03;100587.88;;;15.18;94.54
50368;BME280;36281;34.132;-118.018;2023-03-12T15:42:39;100593.13;;;15.25;93.78
50368;BME280;36281;34.132;-118.018;2023-03-12T15:45:18;100582.56;;;15.30;92.45
50368;BME280;36281;34.132;-118.018;2023-03-12T15:47:49;100595.00;;;15.36;91.83
50368;BME280;36281;34.132;-118.018;2023-03-12T15:50:23;100587.63;;;15.38;90.91
50368;BME280;36281;34.132;-118.018;2023-03-12T15:52:59;100589.50;;;15.49;90.37
50368;BME280;36281;34.132;-118.018;2023-03-12T15:55:29;100588.59;;;15.56;89.36
50368;BME280;36281;34.132;-118.018;2023-03-12T15:57:59;100585.41;;;15.65;88.27
50368;BME280;36281;34.132;-118.018;2023-03-12T16:00:29;100564.59;;;15.97;86.46
50368;BME280;36281;34.132;-118.018;2023-03-12T16:03:00;100590.66;;;16.61;85.25
50368;BME280;36281;34.132;-118.018;2023-03-12T16:05:32;100595.63;;;17.04;83.58